Flight Track Log - Related Links

Times and Time Zones

All times are in EDT time to prevent confusion due to time zone crossing. See the DAL3860 flight status page for this flight to view local times or setup timezone preferences in your user account.

Time Position Orientation Groundspeed Altitude Reporting Facility
EDT Latitude Longitude Course Direction KTS MPH feet Rate Location/Type
Thu 10:06:56 41.3939 -81.8839 270° West 154 177 1,900  Level Cleveland Center
Thu 10:07:51 41.3994 -81.9450 277° West 183 211 4,000 1,647 Climbing Cleveland Center
Thu 10:08:38 41.4050 -81.9978 278° West 207 238 4,700 1,682 Climbing Cleveland Center
Thu 10:09:00 41.3377 -82.2301 258° West  Level FlightAware Approximate
Thu 10:09:38 41.4144 -82.0867 278° West 239 275 7,000  Level Cleveland Center
Thu 10:10:00 41.3178 -82.3593 258° West  Level FlightAware Approximate
Thu 10:10:38 41.3964 -82.1747 255° West 244 281 9,200  Level Cleveland Center
Thu 10:11:00 41.3014 -82.4892 261° West  Level FlightAware Approximate
Thu 10:11:38 41.3972 -82.2689 271° West 249 287 11,200  Level Cleveland Center
Thu 10:12:00 41.2833 -82.6179 270° West  Level FlightAware Approximate
Thu 10:12:38 41.4017 -82.3797 273° West 282 325 12,200  Level Cleveland Center
Thu 10:13:38 41.4081 -82.4989 274° West 317 365 13,300 1,350 Climbing Cleveland Center
Thu 10:14:38 41.4144 -82.6211 274° West 334 384 14,900 1,450 Climbing Cleveland Center
Thu 10:15:38 41.4183 -82.7431 272° West 328 377 16,200 1,200 Climbing Cleveland Center
Thu 10:16:38 41.4244 -82.8650 274° West 333 383 17,300 1,150 Climbing Cleveland Center
Thu 10:17:38 41.4300 -82.9925 273° West 333 383 18,500 1,000 Climbing Cleveland Center
Thu 10:18:38 41.4361 -83.1064 274° West 346 398 19,300 1,000 Climbing Cleveland Center
Thu 10:19:38 41.4411 -83.2478 273° West 352 405 20,500 1,050 Climbing Cleveland Center
Thu 10:20:38 41.4442 -83.3811 272° West 352 405 21,400 700 Climbing Cleveland Center
Thu 10:21:38 41.4828 -83.5103 292° West 352 405 21,900 600 Climbing Cleveland Center
Thu 10:22:38 41.5314 -83.6428 296° West 372 428 22,600 600 Climbing Cleveland Center
Thu 10:23:38 41.5797 -83.7756 296° West 383 441 23,100 550 Climbing Cleveland Center
Thu 10:24:38 41.6222 -83.8944 296° West 388 447 23,700 650 Climbing Cleveland Center
Thu 10:25:38 41.6725 -84.0306 296° West 394 453 24,400 600 Climbing Cleveland Center
Thu 10:26:38 41.7206 -84.1639 296° West 394 453 24,900 500 Climbing Cleveland Center
Thu 10:27:38 41.7764 -84.3117 297° West 399 459 25,400 500 Climbing Cleveland Center
Thu 10:28:38 41.8300 -84.4486 298° West 399 459 25,900 505 Climbing Cleveland Center
Thu 10:31:00 41.9439 -84.7739 295° West 417 480 27,100 502 Climbing Chicago Center
Thu 10:32:01 41.9956 -84.9211 295° West 417 480 27,600 488 Climbing Chicago Center
Thu 10:33:03 42.0447 -85.0622 295° West 419 482 28,100 488 Climbing Chicago Center
Thu 10:34:04 42.0944 -85.2031 295° West 416 479 28,600 492 Climbing Chicago Center
Thu 10:35:05 42.1447 -85.3433 296° West 417 480 29,100 488 Climbing Chicago Center
Thu 10:36:07 42.1936 -85.4825 295° West 412 474 29,600 439 Climbing Chicago Center
Thu 10:37:08 42.2403 -85.6219 294° West 409 471 30,000 197 Climbing Chicago Center
Thu 10:38:09 42.2878 -85.7561 296° West 400 460 30,000  Level Chicago Center
Thu 10:39:11 42.3356 -85.8978 295° West 411 473 30,000  Level Chicago Center
Thu 10:40:12 42.3833 -86.0408 294° West 415 478 30,000  Level Chicago Center
Thu 10:41:13 42.4319 -86.1833 295° West 417 480 30,000  Level Chicago Center
Thu 10:42:14 42.4806 -86.3272 295° West 417 480 30,000  Level Chicago Center
Thu 10:43:15 42.5292 -86.4700 295° West 415 478 30,000  Level Chicago Center
Thu 10:44:17 42.5856 -86.6403 294° West 411 473 30,000  Level Chicago Center
Thu 10:45:18 42.6328 -86.7828 294° West 412 474 30,000  Level Chicago Center
Thu 10:46:19 42.6808 -86.9269 294° West 414 476 30,000  Level Chicago Center
Thu 10:47:20 42.7275 -87.0681 294° West 409 471 30,000  Level Chicago Center
Thu 10:48:21 42.7725 -87.2108 293° West 411 473 30,000  Level Chicago Center
Thu 10:49:23 42.8175 -87.3531 293° West 410 472 30,000  Level Chicago Center
Thu 10:50:24 42.8664 -87.5003 294° West 415 478 30,000  Level Chicago Center
Thu 10:51:25 42.9131 -87.6436 294° West 415 478 30,000  Level Chicago Center
Thu 10:52:26 42.9581 -87.7889 293° West 417 480 30,000  Level Chicago Center
Thu 10:53:27 43.0047 -87.9328 294° West 415 478 30,000  Level Chicago Center
Thu 10:54:29 43.0517 -88.0789 294° West 420 483 30,000  Level Chicago Center
Thu 10:55:30 43.1042 -88.2475 293° West 413 475 30,000  Level Chicago Center
Thu 10:56:31 43.1753 -88.3847 305° West 449 517 30,000  Level Chicago Center
Thu 10:57:32 43.2517 -88.5158 309° West 438 504 30,000  Level Chicago Center
Thu 10:58:33 43.3303 -88.6511 309° West 443 510 30,000  Level Chicago Center
Thu 10:59:35 43.4086 -88.7858 309° West 443 510 30,000  Level Chicago Center
Thu 11:00:36 43.4861 -88.9183 309° West 443 510 30,000  Level Chicago Center
Thu 11:01:37 43.5619 -89.0517 308° West 441 507 30,000  Level Chicago Center
Thu 11:02:38 43.6392 -89.1850 309° West 443 510 30,000  Level Chicago Center
Thu 11:02:55 43.6639 -89.2300 307° West 442 509 30,000  Level Minneapolis Center
Thu 11:03:57 43.7394 -89.3628 308° West 441 507 30,000  Level Minneapolis Center
Thu 11:04:59 43.8144 -89.4975 308° West 441 507 30,000  Level Minneapolis Center
Thu 11:06:12 43.9042 -89.6550 308° West 445 512 30,000  Level Minneapolis Center
Thu 11:07:14 43.9792 -89.7894 308° West 442 509 30,000  Level Minneapolis Center
Thu 11:08:16 44.0556 -89.9253 308° West 445 512 30,000  Level Minneapolis Center
Thu 11:09:17 44.1439 -90.0833 308° West 444 511 30,000  Level Minneapolis Center
Thu 11:10:19 44.2183 -90.2197 307° West 442 509 30,000  Level Minneapolis Center
Thu 11:11:20 44.2942 -90.3556 308° West 442 509 30,000  Level Minneapolis Center
Thu 11:12:22 44.3678 -90.4933 307° West 442 509 30,000  Level Minneapolis Center
Thu 11:13:24 44.4425 -90.6272 308° West 439 505 30,000  Level Minneapolis Center
Thu 11:14:25 44.5161 -90.7619 307° West 436 502 30,000  Level Minneapolis Center
Thu 11:15:27 44.5919 -90.9019 307° West 432 497 30,000  Level Minneapolis Center
Thu 11:16:28 44.6650 -91.0369 307° West 435 501 30,000 -927 Level Minneapolis Center
Thu 11:17:30 44.7156 -91.1817 296° West 421 484 28,100 -2,323 Descending Minneapolis Center
Thu 11:18:32 44.7678 -91.3483 294° West 395 455 25,200 -2,439 Descending Minneapolis Center
Thu 11:19:33 44.8072 -91.4839 292° West 382 440 23,100 -2,098 Descending Minneapolis Center
Thu 11:20:35 44.8486 -91.6181 294° West 378 435 20,900 -2,146 Descending Minneapolis Center
Thu 11:21:36 44.8872 -91.7497 293° West 370 426 18,700 -2,362 Descending Minneapolis Center
Thu 11:22:42 44.9397 -91.8978 297° West 346 398 15,900 -2,442 Descending FAA TRACON SMA TRACON (SMA)
Thu 11:23:02 44.9522 -91.9372 294° West 350 403 15,200 -1,950 Descending FAA TRACON SMA TRACON (SMA)
Thu 11:23:22 44.9642 -91.9767 293° West 353 406 14,600 -1,953 Descending FAA TRACON SMA TRACON (SMA)
Thu 11:23:45 44.9783 -92.0256 292° West 352 405 13,800 -2,093 Descending FAA TRACON SMA TRACON (SMA)
Thu 11:24:05 44.9925 -92.0747 292° West 353 406 13,100 -1,946 Descending FAA TRACON SMA TRACON (SMA)
Thu 11:24:22 45.0003 -92.1042 290° West 353 406 12,600 -1,946 Descending FAA TRACON SMA TRACON (SMA)
Thu 11:24:42 45.0156 -92.1542 293° West 357 411 11,900 -2,100 Descending FAA TRACON SMA TRACON (SMA)
Thu 11:25:02 45.0272 -92.1936 293° West 356 410 11,200 -1,538 Descending FAA TRACON SMA TRACON (SMA)
Thu 11:25:21 45.0367 -92.2325 289° West 352 405 10,900 -450 Descending FAA TRACON SMA TRACON (SMA)
Thu 11:25:42 45.0492 -92.2817 290° West 347 399 10,900  Level FAA TRACON SMA TRACON (SMA)
Thu 11:26:02 45.0489 -92.3214 269° West 339 390 10,900  Level FAA TRACON SMA TRACON (SMA)
Thu 11:26:21 45.0439 -92.3606 260° West 330 380 10,900 -450 Level FAA TRACON SMA TRACON (SMA)
Thu 11:26:42 45.0358 -92.4064 256° West 316 364 10,600 -878 Descending FAA TRACON SMA TRACON (SMA)
Thu 11:27:02 45.0272 -92.4394 250° West 297 342 10,300 -1,024 Descending FAA TRACON SMA TRACON (SMA)
Thu 11:27:23 45.0147 -92.4669 237° Southwest 278 320 9,900 -1,463 Descending FAA TRACON SMA TRACON (SMA)
Thu 11:27:43 44.9986 -92.4992 235° Southwest 263 303 9,300 -1,692 Descending FAA TRACON SMA TRACON (SMA)
Thu 11:28:02 44.9861 -92.5244 235° Southwest 258 297 8,800 -1,538 Descending FAA TRACON SMA TRACON (SMA)
Thu 11:28:22 44.9708 -92.5450 224° Southwest 252 290 8,300 -1,385 Descending FAA TRACON SMA TRACON (SMA)
Thu 11:28:41 44.9486 -92.5650 212° Southwest 246 283 7,900 -1,200 Descending FAA TRACON SMA TRACON (SMA)
Thu 11:29:02 44.9322 -92.5803 213° Southwest 238 274 7,500 -1,050 Descending FAA TRACON SMA TRACON (SMA)
Thu 11:29:21 44.9142 -92.5883 198° South 231 266 7,200 -900 Descending FAA TRACON SMA TRACON (SMA)
Thu 11:29:42 44.8925 -92.5950 192° South 214 246 6,900 -439 Descending FAA TRACON SMA TRACON (SMA)
Thu 11:30:02 44.8739 -92.6006 192° South 212 244 6,900 154 Level FAA TRACON SMA TRACON (SMA)
Thu 11:30:21 44.8561 -92.6058 192° South 213 245 7,000  Climbing FAA TRACON SMA TRACON (SMA)
Thu 11:30:42 44.8319 -92.6131 192° South 221 254 6,900 -146 Descending FAA TRACON SMA TRACON (SMA)
Thu 11:31:02 44.8142 -92.6189 193° South 221 254 6,900  Level FAA TRACON SMA TRACON (SMA)
Thu 11:31:22 44.8000 -92.6353 219° Southwest 225 259 6,900  Level FAA TRACON SMA TRACON (SMA)
Thu 11:31:42 44.7889 -92.6644 242° Southwest 222 255 6,900  Level FAA TRACON SMA TRACON (SMA)
Thu 11:32:01 44.7806 -92.6894 245° Southwest 222 255 6,900 -150 Level FAA TRACON SMA TRACON (SMA)
Thu 11:32:22 44.7781 -92.7161 262° West 227 261 6,800 -732 Descending FAA TRACON SMA TRACON (SMA)
Thu 11:32:42 44.7783 -92.7442 271° West 234 269 6,400 -1,350 Descending FAA TRACON SMA TRACON (SMA)
Thu 11:33:02 44.7814 -92.7789 277° West 232 267 5,900 -1,650 Descending FAA TRACON SMA TRACON (SMA)
Thu 11:33:22 44.7817 -92.8083 271° West 239 275 5,300 -1,538 Descending FAA TRACON SMA TRACON (SMA)
Thu 11:33:41 44.7825 -92.8375 272° West 244 281 4,900 -1,050 Descending FAA TRACON SMA TRACON (SMA)
Thu 11:34:02 44.7819 -92.8739 269° West 244 281 4,600 -857 Descending FAA TRACON SMA TRACON (SMA)
Thu 11:34:23 44.7831 -92.9017 273° West 235 270 4,300 -900 Descending FAA TRACON SMA TRACON (SMA)
Thu 11:34:42 44.7836 -92.9300 272° West 233 268 4,000 -450 Descending FAA TRACON SMA TRACON (SMA)
Thu 11:35:03 44.7844 -92.9653 272° West 233 268 4,000 -150 Level FAA TRACON SMA TRACON (SMA)
Thu 11:35:22 44.7858 -92.9942 274° West 238 274 3,900 -154 Descending FAA TRACON SMA TRACON (SMA)
Thu 11:35:42 44.7928 -93.0203 291° West 237 273 3,900 -450 Level FAA TRACON SMA TRACON (SMA)
Thu 11:36:02 44.8050 -93.0478 302° West 220 253 3,600 -1,200 Descending FAA TRACON SMA TRACON (SMA)
Thu 11:36:22 44.8150 -93.0681 305° West 206 237 3,100 -1,200 Descending FAA TRACON SMA TRACON (SMA)
Thu 11:36:42 44.8242 -93.0872 304° West 194 223 2,800 -1,050 Descending FAA TRACON SMA TRACON (SMA)
Thu 11:37:02 44.8333 -93.1081 302° West 167 192 2,400 -900 Descending FAA TRACON SMA TRACON (SMA)
Thu 11:37:22 44.8397 -93.1233 301° West 150 173 2,200 -750 Descending FAA TRACON SMA TRACON (SMA)
Thu 11:37:42 44.8461 -93.1378 302° West 143 165 1,900 -900 Descending FAA TRACON SMA TRACON (SMA)

Login

Don't have an account? Register now (free) for customized features, flight alerts, and more!